Time;durP1;ratioP1;P1;durP2;ratioP2;P2;SDS_P1;SDS_P2;PMS_P1;PMS_P2;Temp;Humidity;BMP_temperature;BMP_pressure;BME280_temperature;BME280_humidity;BME280_pressure;Samples;Min_cycle;Max_cycle;Signal;HPM_P1;HPM_P2
2020/12/06 00:02:00;;;;;;;60.38;28.10;;;3.70;99.90;;;;;;5061606;28;20104;-83
2020/12/06 00:04:27;;;;;;;57.22;26.83;;;3.70;99.90;;;;;;5074208;28;20055;-82
2020/12/06 00:06:54;;;;;;;50.35;24.42;;;3.70;99.90;;;;;;5057266;28;20070;-83
2020/12/06 00:09:19;;;;;;;56.40;27.85;;;3.70;99.90;;;;;;5054334;28;20373;-83
2020/12/06 00:11:45;;;;;;;55.05;26.23;;;3.70;99.90;;;;;;5064924;28;20032;-83
2020/12/06 00:14:10;;;;;;;57.53;26.73;;;3.60;99.90;;;;;;5088258;28;20039;-83
2020/12/06 00:16:36;;;;;;;58.45;24.85;;;3.60;99.90;;;;;;5069029;28;20515;-83
2020/12/06 00:19:02;;;;;;;49.78;27.10;;;3.60;99.90;;;;;;5071455;28;20044;-83
2020/12/06 00:21:27;;;;;;;56.22;27.25;;;3.60;99.90;;;;;;5091018;28;20479;-83
2020/12/06 00:23:53;;;;;;;55.10;27.02;;;3.60;99.90;;;;;;5085940;28;20053;-82
2020/12/06 00:26:24;;;;;;;58.92;29.33;;;3.60;99.90;;;;;;5074300;28;20027;-83
2020/12/06 00:28:50;;;;;;;53.97;25.65;;;3.50;99.90;;;;;;5063094;28;20063;-82
2020/12/06 00:31:16;;;;;;;52.05;27.40;;;3.50;99.90;;;;;;5064079;28;20024;-83
2020/12/06 00:33:42;;;;;;;58.05;27.17;;;3.50;99.90;;;;;;5069406;28;20027;-83
2020/12/06 00:36:12;;;;;;;54.83;25.23;;;3.50;99.90;;;;;;5075892;28;20107;-83
2020/12/06 00:38:38;;;;;;;49.88;25.88;;;3.40;99.90;;;;;;5093174;28;20085;-83
2020/12/06 00:41:05;;;;;;;51.25;26.40;;;3.40;99.90;;;;;;5090806;28;20024;-83
2020/12/06 00:43:30;;;;;;;54.50;28.42;;;3.40;99.90;;;;;;5070056;28;20038;-82
2020/12/06 00:45:56;;;;;;;48.33;26.10;;;3.30;99.90;;;;;;5086781;28;20036;-83
2020/12/06 00:48:21;;;;;;;60.65;28.85;;;3.30;99.90;;;;;;5069427;28;20082;-83
2020/12/06 00:50:47;;;;;;;53.15;28.95;;;3.30;99.90;;;;;;5085695;28;20433;-83
2020/12/06 00:53:13;;;;;;;51.30;27.25;;;3.30;99.90;;;;;;5097203;28;20031;-83
2020/12/06 00:55:38;;;;;;;53.10;27.95;;;3.30;99.90;;;;;;5088982;28;20024;-83
2020/12/06 00:58:04;;;;;;;55.83;26.83;;;3.40;99.90;;;;;;5066287;28;20059;-83
2020/12/06 01:00:29;;;;;;;47.28;25.50;;;3.40;99.90;;;;;;5069762;28;20414;-83
2020/12/06 01:02:55;;;;;;;49.10;27.15;;;3.40;99.90;;;;;;5086401;28;20032;-83
2020/12/06 01:05:20;;;;;;;51.65;25.58;;;3.50;99.90;;;;;;5081078;28;20065;-83
2020/12/06 01:07:46;;;;;;;46.92;25.05;;;3.40;99.90;;;;;;5109897;28;20072;-82
2020/12/06 01:10:12;;;;;;;47.65;26.65;;;3.50;99.90;;;;;;5074837;28;20093;-83
2020/12/06 01:12:39;;;;;;;45.60;24.13;;;3.40;99.90;;;;;;5093453;28;20081;-82
2020/12/06 01:15:07;;;;;;;50.72;26.13;;;3.40;99.90;;;;;;5069158;28;20036;-83
2020/12/06 01:17:32;;;;;;;50.28;26.40;;;3.40;99.90;;;;;;5068560;28;20028;-82
2020/12/06 01:19:58;;;;;;;44.38;24.30;;;3.30;99.90;;;;;;5077551;28;20027;-82
2020/12/06 01:22:24;;;;;;;48.75;23.92;;;3.30;99.90;;;;;;5091689;28;20051;-82
2020/12/06 01:24:49;;;;;;;47.47;24.65;;;3.20;99.90;;;;;;5078078;28;20412;-82
2020/12/06 01:27:16;;;;;;;52.28;26.27;;;3.20;99.90;;;;;;5099917;28;20032;-83
2020/12/06 01:29:41;;;;;;;47.35;26.08;;;3.10;99.90;;;;;;5069592;28;20468;-83
2020/12/06 01:32:07;;;;;;;53.95;25.90;;;3.20;99.90;;;;;;5068496;28;20054;-83
2020/12/06 01:34:32;;;;;;;48.97;25.85;;;3.20;99.90;;;;;;5073745;28;20077;-82
2020/12/06 01:36:58;;;;;;;45.95;27.00;;;3.20;99.90;;;;;;5091610;28;20506;-83
2020/12/06 01:39:23;;;;;;;50.35;26.23;;;3.20;99.90;;;;;;5082742;28;20089;-82
2020/12/06 01:41:54;;;;;;;47.50;25.92;;;3.20;99.90;;;;;;5107292;28;20042;-81
2020/12/06 01:44:20;;;;;;;54.38;28.55;;;3.20;99.90;;;;;;5107322;28;20031;-82
2020/12/06 01:46:49;;;;;;;52.85;27.35;;;3.20;99.90;;;;;;5091179;28;20527;-82
2020/12/06 01:49:15;;;;;;;57.88;27.63;;;3.10;99.90;;;;;;5084826;28;20047;-82
2020/12/06 01:51:40;;;;;;;54.22;27.38;;;3.10;99.90;;;;;;5111456;28;20086;-82
2020/12/06 01:54:06;;;;;;;53.63;27.00;;;3.10;99.90;;;;;;5107818;28;20024;-83
2020/12/06 01:56:31;;;;;;;56.75;29.20;;;3.10;99.90;;;;;;5097499;28;20063;-83
2020/12/06 01:58:57;;;;;;;53.63;26.77;;;3.10;99.90;;;;;;5087184;28;20061;-83
2020/12/06 02:01:22;;;;;;;60.70;26.10;;;3.10;99.90;;;;;;5070247;28;20461;-83
2020/12/06 02:03:53;;;;;;;51.30;26.08;;;3.10;99.90;;;;;;5065800;28;20031;-82
2020/12/06 02:06:18;;;;;;;48.35;26.17;;;3.10;99.90;;;;;;5064665;28;20032;-82
2020/12/06 02:08:44;;;;;;;57.28;28.15;;;3.10;99.90;;;;;;5051129;28;20032;-83
2020/12/06 02:11:09;;;;;;;49.05;25.17;;;3.10;99.90;;;;;;5058494;28;20464;-82
2020/12/06 02:13:35;;;;;;;53.83;26.92;;;3.10;99.90;;;;;;5063292;28;21270;-82
2020/12/06 02:16:00;;;;;;;52.15;26.27;;;3.10;99.90;;;;;;5072588;28;20024;-82
2020/12/06 02:18:26;;;;;;;61.97;30.08;;;3.10;99.90;;;;;;5072891;28;20476;-83
2020/12/06 02:20:58;;;;;;;51.33;26.02;;;3.10;99.90;;;;;;5088735;28;20073;-82
2020/12/06 02:23:24;;;;;;;47.67;24.25;;;3.00;99.90;;;;;;5095073;28;20115;-82
2020/12/06 02:25:49;;;;;;;47.58;24.92;;;2.90;99.90;;;;;;5095154;28;20143;-82
2020/12/06 02:28:15;;;;;;;53.00;25.67;;;2.90;99.90;;;;;;5079818;28;20051;-82
2020/12/06 02:30:40;;;;;;;52.97;27.15;;;2.80;99.90;;;;;;5083400;28;20530;-83
2020/12/06 02:33:06;;;;;;;54.17;27.75;;;2.90;99.90;;;;;;5072830;28;20066;-82
2020/12/06 02:35:31;;;;;;;54.58;26.65;;;2.90;99.90;;;;;;5074057;28;20026;-83
2020/12/06 02:37:58;;;;;;;57.80;27.55;;;2.90;99.90;;;;;;5074600;28;20380;-83
2020/12/06 02:40:23;;;;;;;51.88;26.58;;;3.00;99.90;;;;;;5075009;28;20016;-83
2020/12/06 02:42:49;;;;;;;55.28;28.30;;;3.00;99.90;;;;;;5077061;28;20053;-82
2020/12/06 02:45:14;;;;;;;52.17;28.73;;;3.00;99.90;;;;;;5072182;28;20034;-83
2020/12/06 02:47:40;;;;;;;51.38;26.52;;;3.00;99.90;;;;;;5064603;28;20032;-82
2020/12/06 02:50:06;;;;;;;58.60;29.35;;;3.00;99.90;;;;;;5081975;28;20020;-82
2020/12/06 02:52:31;;;;;;;54.95;28.05;;;3.00;99.90;;;;;;5078612;28;20055;-83
2020/12/06 02:54:57;;;;;;;57.00;28.35;;;3.00;99.90;;;;;;5088320;28;20028;-82
2020/12/06 02:57:23;;;;;;;53.30;27.65;;;3.00;99.90;;;;;;5075786;28;20065;-82
2020/12/06 02:59:48;;;;;;;52.30;27.15;;;3.00;99.90;;;;;;5072534;28;20028;-82
2020/12/06 03:02:14;;;;;;;54.10;28.35;;;3.00;99.90;;;;;;5071060;28;20127;-82
2020/12/06 03:04:40;;;;;;;57.30;27.67;;;3.10;99.90;;;;;;5076296;28;20494;-82
2020/12/06 03:07:05;;;;;;;54.70;28.52;;;3.00;99.90;;;;;;5075342;28;20059;-82
2020/12/06 03:09:31;;;;;;;55.63;29.10;;;3.10;99.90;;;;;;5072976;28;20024;-82
2020/12/06 03:11:56;;;;;;;55.05;29.42;;;3.20;99.90;;;;;;5072368;28;20024;-82
2020/12/06 03:14:22;;;;;;;54.50;28.83;;;3.20;99.90;;;;;;5089629;28;20103;-83
2020/12/06 03:16:47;;;;;;;52.08;26.35;;;3.20;99.90;;;;;;5071540;28;20433;-82
2020/12/06 03:19:13;;;;;;;52.00;27.77;;;3.30;99.90;;;;;;5072611;28;20481;-83
2020/12/06 03:21:39;;;;;;;51.63;26.50;;;3.20;99.90;;;;;;5093826;28;20060;-82
2020/12/06 03:24:04;;;;;;;48.53;25.63;;;3.30;99.90;;;;;;5086551;28;20085;-82
2020/12/06 03:26:30;;;;;;;49.38;25.58;;;3.30;99.90;;;;;;5070882;28;20028;-82
2020/12/06 03:28:55;;;;;;;50.17;26.35;;;3.30;99.90;;;;;;5071807;28;20491;-82
2020/12/06 03:31:21;;;;;;;52.33;26.15;;;3.30;99.90;;;;;;5071162;28;20024;-82
2020/12/06 03:33:46;;;;;;;50.88;26.35;;;3.40;99.90;;;;;;5072477;28;20038;-82
2020/12/06 03:36:12;;;;;;;57.78;25.05;;;3.40;99.90;;;;;;5063131;28;20028;-82
2020/12/06 03:38:37;;;;;;;47.10;24.90;;;3.40;99.90;;;;;;5052954;28;20044;-82
2020/12/06 03:41:03;;;;;;;46.47;26.15;;;3.40;99.90;;;;;;5056882;28;20048;-82
2020/12/06 03:43:28;;;;;;;49.40;27.02;;;3.40;99.90;;;;;;5084349;28;20077;-82
2020/12/06 03:45:54;;;;;;;51.10;26.42;;;3.40;99.90;;;;;;5070250;28;20024;-82
2020/12/06 03:48:19;;;;;;;48.70;26.35;;;3.40;99.90;;;;;;5070288;28;20016;-82
2020/12/06 03:50:45;;;;;;;45.70;24.67;;;3.40;99.90;;;;;;5085817;28;20024;-83
2020/12/06 03:53:11;;;;;;;55.08;26.05;;;3.50;99.90;;;;;;5111194;28;20031;-83
2020/12/06 03:55:36;;;;;;;50.72;26.20;;;3.50;99.90;;;;;;5068020;28;20425;-82
2020/12/06 03:58:02;;;;;;;47.25;22.20;;;3.50;99.90;;;;;;5070421;28;20030;-82
2020/12/06 04:00:28;;;;;;;53.17;26.77;;;3.50;99.90;;;;;;5067049;28;20031;-82
2020/12/06 04:02:53;;;;;;;54.50;25.67;;;3.50;99.90;;;;;;5066219;28;20469;-83
2020/12/06 04:05:20;;;;;;;46.00;25.80;;;3.50;99.90;;;;;;5052956;28;20039;-83
2020/12/06 04:07:50;;;;;;;48.80;23.67;;;3.60;99.90;;;;;;5052541;28;20036;-82
2020/12/06 04:10:17;;;;;;;46.88;24.38;;;3.70;99.90;;;;;;5052469;28;20020;-82
2020/12/06 04:12:42;;;;;;;46.33;24.08;;;3.60;99.90;;;;;;5073353;28;20024;-82
2020/12/06 04:15:08;;;;;;;46.13;23.15;;;3.70;99.90;;;;;;5069963;28;20088;-82
2020/12/06 04:17:33;;;;;;;49.15;24.20;;;3.60;99.90;;;;;;5066654;28;20037;-82
2020/12/06 04:19:59;;;;;;;45.58;25.08;;;3.60;99.90;;;;;;5064895;28;20357;-82
2020/12/06 04:22:25;;;;;;;49.45;25.75;;;3.50;99.90;;;;;;5092814;28;20145;-82
2020/12/06 04:24:50;;;;;;;47.67;22.83;;;3.50;99.90;;;;;;5079213;28;20072;-82
2020/12/06 04:27:16;;;;;;;50.38;25.55;;;3.60;99.90;;;;;;5074072;28;20472;-83
2020/12/06 04:29:42;;;;;;;52.55;27.73;;;3.60;99.90;;;;;;5067627;28;20365;-82
2020/12/06 04:32:07;;;;;;;52.03;24.75;;;3.70;99.90;;;;;;5069673;28;20104;-82
2020/12/06 04:34:36;;;;;;;44.65;24.98;;;3.60;99.90;;;;;;5060662;28;20111;-82
2020/12/06 04:37:05;;;;;;;50.45;25.30;;;3.60;99.90;;;;;;5072276;28;20118;-82
2020/12/06 04:39:31;;;;;;;46.75;25.17;;;3.60;99.90;;;;;;5072118;28;20075;-82
2020/12/06 04:41:57;;;;;;;49.55;23.70;;;3.60;99.90;;;;;;5069604;28;20052;-82
2020/12/06 04:44:22;;;;;;;50.90;25.63;;;3.70;99.90;;;;;;5061792;28;20081;-82
2020/12/06 04:46:48;;;;;;;47.88;25.25;;;3.60;99.90;;;;;;5071580;28;20444;-81
2020/12/06 04:49:44;;;;;;;48.67;26.02;;;3.60;99.90;;;;;;5068719;28;20039;-82
2020/12/06 04:52:22;;;;;;;44.50;23.70;;;3.60;99.90;;;;;;5072982;28;20388;-82
2020/12/06 04:54:57;;;;;;;50.92;26.58;;;3.60;99.90;;;;;;5072161;28;20069;-82
2020/12/06 04:57:23;;;;;;;50.80;26.05;;;3.60;99.90;;;;;;5069586;28;20549;-83
2020/12/06 04:59:54;;;;;;;57.75;26.77;;;3.60;99.90;;;;;;5069524;28;20032;-82
2020/12/06 05:02:20;;;;;;;45.80;27.00;;;3.60;99.90;;;;;;5084255;28;20476;-82
2020/12/06 05:04:47;;;;;;;47.92;25.15;;;3.60;99.90;;;;;;5076004;28;20072;-82
2020/12/06 05:07:16;;;;;;;51.20;26.45;;;3.60;99.90;;;;;;5087349;28;20115;-82
2020/12/06 05:09:43;;;;;;;46.00;24.55;;;3.60;99.90;;;;;;5083552;28;20080;-82
2020/12/06 05:12:09;;;;;;;46.15;25.85;;;3.60;99.90;;;;;;5066811;28;20035;-82
2020/12/06 05:14:34;;;;;;;41.35;24.15;;;3.60;99.90;;;;;;5087005;28;20078;-82
2020/12/06 05:17:01;;;;;;;46.67;26.42;;;3.60;99.90;;;;;;5086988;28;20573;-82
2020/12/06 05:19:28;;;;;;;50.55;27.10;;;3.60;99.90;;;;;;5072112;28;20126;-83
2020/12/06 05:21:54;;;;;;;53.95;27.05;;;3.50;99.90;;;;;;5059776;28;20036;-82
2020/12/06 05:24:20;;;;;;;50.05;25.25;;;3.60;99.90;;;;;;5055854;28;20554;-82
2020/12/06 05:26:46;;;;;;;44.13;23.92;;;3.60;99.90;;;;;;5077580;28;20120;-82
2020/12/06 05:29:13;;;;;;;52.83;27.17;;;3.60;99.90;;;;;;5086249;28;20111;-82
2020/12/06 05:31:39;;;;;;;50.90;26.08;;;3.60;99.90;;;;;;5067845;28;20023;-82
2020/12/06 05:34:05;;;;;;;50.00;27.45;;;3.60;99.90;;;;;;5088989;28;20032;-82
2020/12/06 05:36:30;;;;;;;52.58;26.30;;;3.50;99.90;;;;;;5091094;28;20020;-82
2020/12/06 05:38:56;;;;;;;52.53;28.70;;;3.50;99.90;;;;;;5089001;28;20047;-82
2020/12/06 05:41:21;;;;;;;60.90;28.45;;;3.40;99.90;;;;;;5070244;28;20021;-82
2020/12/06 05:43:47;;;;;;;47.20;26.48;;;3.50;99.90;;;;;;5087776;28;20031;-82
2020/12/06 05:46:14;;;;;;;48.78;26.10;;;3.40;99.90;;;;;;5073092;28;20465;-82
2020/12/06 05:48:41;;;;;;;43.53;23.65;;;3.40;99.90;;;;;;5073030;28;20396;-82
2020/12/06 05:51:07;;;;;;;46.50;24.67;;;3.40;99.90;;;;;;5092531;28;20020;-82
2020/12/06 05:53:34;;;;;;;51.15;26.27;;;3.30;99.90;;;;;;5095153;28;20031;-82
2020/12/06 05:56:19;;;;;;;52.00;25.33;;;3.30;99.90;;;;;;5084189;28;20032;-83
2020/12/06 05:58:47;;;;;;;48.40;25.27;;;3.20;99.90;;;;;;5071874;28;20039;-82
2020/12/06 06:01:14;;;;;;;50.92;26.17;;;3.20;99.90;;;;;;5069818;28;20052;-82
2020/12/06 06:03:46;;;;;;;51.05;26.85;;;3.20;99.90;;;;;;5069510;28;20386;-82
2020/12/06 06:06:25;;;;;;;48.85;25.85;;;3.10;99.90;;;;;;5091270;28;20461;-82
2020/12/06 06:08:58;;;;;;;57.05;26.95;;;3.10;99.90;;;;;;5090317;28;20028;-82
2020/12/06 06:11:29;;;;;;;59.30;29.23;;;3.10;99.90;;;;;;5092172;28;20469;-82
2020/12/06 06:14:00;;;;;;;56.85;27.27;;;3.10;99.90;;;;;;5087914;28;20032;-82
2020/12/06 06:16:28;;;;;;;56.08;28.70;;;3.10;99.90;;;;;;5090278;28;20024;-82
2020/12/06 06:18:56;;;;;;;61.78;29.35;;;3.10;99.90;;;;;;5080376;28;20039;-82
2020/12/06 06:21:28;;;;;;;55.67;27.67;;;3.10;99.90;;;;;;5095030;28;20052;-82
2020/12/06 06:23:56;;;;;;;54.90;25.88;;;3.10;99.90;;;;;;5099615;28;20027;-82
2020/12/06 06:26:26;;;;;;;55.75;27.80;;;3.10;99.90;;;;;;5087011;28;20027;-82
2020/12/06 06:28:53;;;;;;;57.35;28.63;;;3.10;99.90;;;;;;5090173;28;20035;-83
2020/12/06 06:31:20;;;;;;;60.92;32.20;;;3.10;99.90;;;;;;5064315;28;20024;-82
2020/12/06 06:33:47;;;;;;;58.35;29.10;;;3.10;99.90;;;;;;5071837;28;20480;-83
2020/12/06 06:36:12;;;;;;;55.03;27.63;;;3.10;99.90;;;;;;5090826;28;20069;-82
2020/12/06 06:38:49;;;;;;;64.18;30.88;;;3.10;99.90;;;;;;5094326;28;20035;-83
2020/12/06 06:41:14;;;;;;;56.38;29.33;;;3.10;99.90;;;;;;5087943;28;20047;-83
2020/12/06 06:43:42;;;;;;;59.70;30.95;;;3.20;99.90;;;;;;5064430;28;20437;-83
2020/12/06 06:46:16;;;;;;;62.60;31.58;;;3.10;99.90;;;;;;5070908;28;20056;-83
2020/12/06 06:48:49;;;;;;;67.18;31.27;;;3.20;99.90;;;;;;5071578;28;20025;-82
2020/12/06 06:51:20;;;;;;;64.55;30.73;;;3.20;99.90;;;;;;5078228;28;20036;-82
2020/12/06 06:53:46;;;;;;;59.10;29.73;;;3.10;99.90;;;;;;5073846;28;20028;-83
2020/12/06 06:56:16;;;;;;;58.08;30.40;;;3.20;99.90;;;;;;5072886;28;20108;-82
2020/12/06 06:58:46;;;;;;;60.80;30.27;;;3.20;99.90;;;;;;5070804;28;20040;-83
2020/12/06 07:01:19;;;;;;;62.30;30.00;;;3.20;99.90;;;;;;5070949;28;20016;-83
2020/12/06 07:03:50;;;;;;;60.38;31.35;;;3.20;99.90;;;;;;5068509;28;20397;-81
2020/12/06 07:06:45;;;;;;;70.13;31.35;;;3.30;99.90;;;;;;5085944;28;20376;-83
2020/12/06 07:09:11;;;;;;;62.30;30.40;;;3.30;99.90;;;;;;5080909;28;20028;-83
2020/12/06 07:11:39;;;;;;;62.22;31.80;;;3.30;99.90;;;;;;5080659;28;20035;-83
2020/12/06 07:14:04;;;;;;;67.95;32.33;;;3.30;99.90;;;;;;5071746;28;20028;-83
2020/12/06 07:16:30;;;;;;;70.78;32.70;;;3.30;99.90;;;;;;5070374;28;20066;-83
2020/12/06 07:18:56;;;;;;;65.97;32.20;;;3.40;99.90;;;;;;5088180;28;20040;-83
2020/12/06 07:21:21;;;;;;;69.60;35.53;;;3.40;99.90;;;;;;5082985;28;20124;-83
2020/12/06 07:23:46;;;;;;;63.20;28.48;;;3.40;99.90;;;;;;5061015;28;20060;-83
2020/12/06 07:26:12;;;;;;;73.53;35.63;;;3.40;99.90;;;;;;5071294;28;20087;-83
2020/12/06 07:28:38;;;;;;;79.47;35.63;;;3.40;99.90;;;;;;5067096;28;20484;-82
2020/12/06 07:31:04;;;;;;;69.30;34.80;;;3.40;99.90;;;;;;5065052;28;20039;-82
2020/12/06 07:33:29;;;;;;;64.35;32.28;;;3.30;99.90;;;;;;5048684;28;20070;-83
2020/12/06 07:35:55;;;;;;;74.00;35.50;;;3.40;99.90;;;;;;5055200;28;20042;-82
2020/12/06 07:38:21;;;;;;;71.03;34.50;;;3.40;99.90;;;;;;5058561;28;20537;-82
2020/12/06 07:40:46;;;;;;;76.70;35.60;;;3.40;99.90;;;;;;5082700;28;20043;-82
2020/12/06 07:43:13;;;;;;;74.88;36.60;;;3.40;99.90;;;;;;5066951;28;20107;-82
2020/12/06 07:45:40;;;;;;;83.45;37.90;;;3.50;99.90;;;;;;5065985;28;20056;-82
2020/12/06 07:48:06;;;;;;;70.35;35.30;;;3.50;99.90;;;;;;5050580;28;20075;-83
2020/12/06 07:50:31;;;;;;;80.07;36.78;;;3.50;99.90;;;;;;5080858;28;20407;-82
2020/12/06 07:53:03;;;;;;;77.00;36.85;;;3.50;99.90;;;;;;5071699;28;20082;-82
2020/12/06 07:55:29;;;;;;;82.40;40.80;;;3.50;99.90;;;;;;5087662;28;20020;-82
2020/12/06 07:57:59;;;;;;;88.70;41.58;;;3.50;99.90;;;;;;5083895;28;20458;-82
2020/12/06 08:00:37;;;;;;;79.00;38.80;;;3.50;99.90;;;;;;5068834;28;20024;-82
2020/12/06 08:03:04;;;;;;;81.30;38.58;;;3.50;99.90;;;;;;5069428;28;20082;-82
2020/12/06 08:05:33;;;;;;;83.80;36.67;;;3.50;99.90;;;;;;5082854;28;20436;-82
2020/12/06 08:08:03;;;;;;;86.25;39.58;;;3.50;99.90;;;;;;5084122;27;20038;-82
2020/12/06 08:10:30;;;;;;;78.35;36.80;;;3.60;99.90;;;;;;5074576;28;20019;-82
2020/12/06 08:12:56;;;;;;;96.63;41.03;;;3.60;99.90;;;;;;5070477;28;20036;-82
2020/12/06 08:15:26;;;;;;;74.97;38.22;;;3.60;99.90;;;;;;5069660;28;20074;-82
2020/12/06 08:17:53;;;;;;;94.78;41.15;;;3.60;99.90;;;;;;5064894;28;20040;-82
2020/12/06 08:20:21;;;;;;;84.55;39.33;;;3.60;99.90;;;;;;5072215;28;20028;-82
2020/12/06 08:22:53;;;;;;;88.07;40.72;;;3.60;99.90;;;;;;5090105;28;20028;-82
2020/12/06 08:25:21;;;;;;;87.90;40.67;;;3.60;99.90;;;;;;5090245;28;20044;-83
2020/12/06 08:27:48;;;;;;;86.45;41.10;;;3.60;99.90;;;;;;5056015;28;20036;-82
2020/12/06 08:30:16;;;;;;;91.72;43.63;;;3.70;99.90;;;;;;5081307;28;20365;-83
2020/12/06 08:32:59;;;;;;;81.00;41.30;;;3.70;99.90;;;;;;5067246;28;20390;-82
2020/12/06 08:35:42;;;;;;;83.22;41.35;;;3.70;99.90;;;;;;5058982;28;20119;-83
2020/12/06 08:38:15;;;;;;;91.90;43.03;;;3.70;99.90;;;;;;5092164;28;20433;-83
2020/12/06 08:40:58;;;;;;;88.03;42.88;;;3.70;99.90;;;;;;5073869;28;20043;-82
2020/12/06 08:43:24;;;;;;;99.25;43.97;;;3.70;99.90;;;;;;5067781;28;20027;-81
2020/12/06 08:46:09;;;;;;;90.03;41.75;;;3.70;99.90;;;;;;5068474;28;20035;-82
2020/12/06 08:48:34;;;;;;;91.72;42.58;;;3.70;99.90;;;;;;5058113;28;20049;-82
2020/12/06 08:51:00;;;;;;;97.55;46.20;;;3.80;99.90;;;;;;5085875;28;20055;-82
2020/12/06 08:53:25;;;;;;;74.30;35.22;;;3.70;99.90;;;;;;5109925;28;20027;-82
2020/12/06 08:55:51;;;;;;;90.72;42.83;;;3.70;99.90;;;;;;5087921;28;20060;-82
2020/12/06 08:58:29;;;;;;;99.05;44.70;;;3.80;99.90;;;;;;5087343;28;20459;-83
2020/12/06 09:01:02;;;;;;;95.18;44.35;;;3.70;99.90;;;;;;5058537;28;20094;-82
2020/12/06 09:03:28;;;;;;;97.50;45.00;;;3.80;99.90;;;;;;5069683;28;20030;-82
2020/12/06 09:05:54;;;;;;;97.15;44.65;;;3.80;99.90;;;;;;5074223;28;20020;-82
2020/12/06 09:08:19;;;;;;;97.88;45.25;;;3.80;99.90;;;;;;5071550;28;20069;-82
2020/12/06 09:10:45;;;;;;;99.22;45.70;;;3.70;99.90;;;;;;5087006;28;20107;-82
2020/12/06 09:13:10;;;;;;;108.22;48.85;;;3.80;99.90;;;;;;5070412;28;20032;-82
2020/12/06 09:15:36;;;;;;;105.95;47.53;;;3.80;99.90;;;;;;5060488;28;20028;-83
2020/12/06 09:18:01;;;;;;;102.05;47.58;;;3.80;99.90;;;;;;5060812;28;20131;-82
2020/12/06 09:20:27;;;;;;;102.18;46.72;;;3.80;99.90;;;;;;5054463;28;20511;-82
2020/12/06 09:22:52;;;;;;;111.13;49.03;;;3.90;99.90;;;;;;5070997;28;20389;-82
2020/12/06 09:25:18;;;;;;;112.80;47.85;;;3.90;99.90;;;;;;5095977;28;20052;-82
2020/12/06 09:27:43;;;;;;;104.78;48.20;;;3.90;99.90;;;;;;5057604;28;20024;-82
2020/12/06 09:30:09;;;;;;;107.07;50.10;;;3.90;99.90;;;;;;5068520;28;20465;-82
2020/12/06 09:32:34;;;;;;;109.15;47.05;;;3.90;99.90;;;;;;5076095;28;20024;-82
2020/12/06 09:35:00;;;;;;;105.00;48.90;;;3.90;99.90;;;;;;5084448;28;20529;-82
2020/12/06 09:37:25;;;;;;;103.25;50.00;;;4.00;99.90;;;;;;5098283;28;20114;-82
2020/12/06 09:39:51;;;;;;;111.25;49.78;;;4.00;99.90;;;;;;5085584;28;20036;-82
2020/12/06 09:42:16;;;;;;;103.25;47.90;;;4.00;99.90;;;;;;5076878;28;20070;-82
2020/12/06 09:44:42;;;;;;;102.20;47.55;;;4.00;99.90;;;;;;5073569;28;20028;-82
2020/12/06 09:47:07;;;;;;;103.63;50.25;;;4.10;99.90;;;;;;5075790;28;20043;-82
2020/12/06 09:49:33;;;;;;;113.20;48.28;;;4.10;99.90;;;;;;5078183;28;20039;-82
2020/12/06 09:51:59;;;;;;;111.75;49.83;;;4.10;99.90;;;;;;5073119;28;20414;-82
2020/12/06 09:54:24;;;;;;;105.63;48.20;;;4.10;99.90;;;;;;5097563;28;20035;-84
2020/12/06 09:56:50;;;;;;;104.47;48.70;;;4.10;99.90;;;;;;5085125;28;20032;-81
2020/12/06 09:59:15;;;;;;;103.70;47.30;;;4.20;99.90;;;;;;5075340;28;20080;-82
2020/12/06 10:01:41;;;;;;;109.63;49.60;;;4.20;99.90;;;;;;5074513;28;20492;-82
2020/12/06 10:04:06;;;;;;;112.47;50.75;;;4.20;99.90;;;;;;5075796;28;20388;-82
2020/12/06 10:06:32;;;;;;;113.32;47.95;;;4.20;99.90;;;;;;5095849;28;20030;-82
2020/12/06 10:08:57;;;;;;;103.47;46.28;;;4.20;99.90;;;;;;5091862;28;20028;-82
2020/12/06 10:11:24;;;;;;;112.97;47.97;;;4.20;99.90;;;;;;5076985;28;20020;-82
2020/12/06 10:13:50;;;;;;;103.35;48.95;;;4.20;99.90;;;;;;5076013;28;20046;-82
2020/12/06 10:16:16;;;;;;;114.57;49.88;;;4.20;99.90;;;;;;5078231;28;20111;-82
2020/12/06 10:18:42;;;;;;;114.00;49.85;;;4.20;99.90;;;;;;5096187;28;20392;-82
2020/12/06 10:21:11;;;;;;;121.15;52.08;;;4.30;99.90;;;;;;5079876;28;20020;-82
2020/12/06 10:23:37;;;;;;;115.00;51.85;;;4.30;99.90;;;;;;5077198;28;20384;-83
2020/12/06 10:26:02;;;;;;;114.93;53.20;;;4.30;99.90;;;;;;5082855;28;20047;-83
2020/12/06 10:28:28;;;;;;;118.75;51.88;;;4.30;99.90;;;;;;5076127;28;20154;-82
2020/12/06 10:30:53;;;;;;;132.13;52.72;;;4.30;99.90;;;;;;5073366;28;20036;-83
2020/12/06 10:33:19;;;;;;;118.88;53.90;;;4.30;99.90;;;;;;5072297;28;20029;-83
2020/12/06 10:35:44;;;;;;;122.75;55.10;;;4.30;99.90;;;;;;5086250;28;20028;-83
2020/12/06 10:38:11;;;;;;;118.80;53.55;;;4.30;99.90;;;;;;5094115;28;20039;-83
2020/12/06 10:40:38;;;;;;;121.38;52.70;;;4.30;99.90;;;;;;5076571;28;20024;-83
2020/12/06 10:43:04;;;;;;;123.20;55.03;;;4.40;99.90;;;;;;5070461;28;20464;-83
2020/12/06 10:45:30;;;;;;;126.70;51.88;;;4.40;99.90;;;;;;5070324;28;20024;-82
2020/12/06 10:47:55;;;;;;;126.38;53.40;;;4.40;99.90;;;;;;5071927;28;20540;-82
2020/12/06 10:50:21;;;;;;;118.20;50.65;;;4.40;99.90;;;;;;5064188;28;20027;-82
2020/12/06 10:52:47;;;;;;;118.35;51.90;;;4.40;99.90;;;;;;5053739;28;20024;-82
2020/12/06 10:55:12;;;;;;;125.38;52.53;;;4.40;99.90;;;;;;5054203;28;20024;-82
2020/12/06 10:57:38;;;;;;;126.45;49.70;;;4.50;99.90;;;;;;5080871;28;20126;-82
2020/12/06 11:00:05;;;;;;;133.43;56.13;;;4.40;99.90;;;;;;5086044;28;20065;-82
2020/12/06 11:02:31;;;;;;;128.13;57.35;;;4.40;99.90;;;;;;5086286;28;20029;-83
2020/12/06 11:04:57;;;;;;;140.50;58.70;;;4.50;99.90;;;;;;5089717;28;20101;-83
2020/12/06 11:07:23;;;;;;;136.20;58.85;;;4.50;99.90;;;;;;5113007;28;20030;-82
2020/12/06 11:09:48;;;;;;;139.85;55.92;;;4.50;99.90;;;;;;5104940;28;20031;-82
2020/12/06 11:12:14;;;;;;;130.70;57.13;;;4.50;99.90;;;;;;5081779;28;20024;-83
2020/12/06 11:14:39;;;;;;;139.77;59.67;;;4.50;99.90;;;;;;5071420;28;20027;-82
2020/12/06 11:17:05;;;;;;;137.57;60.10;;;4.60;99.90;;;;;;5069834;28;20460;-82
2020/12/06 11:19:30;;;;;;;152.15;57.92;;;4.60;99.90;;;;;;5058108;28;20044;-82
2020/12/06 11:21:56;;;;;;;133.85;54.88;;;4.60;99.90;;;;;;5062229;28;20025;-83
2020/12/06 11:24:21;;;;;;;135.95;56.17;;;4.70;99.90;;;;;;5060230;28;20138;-82
2020/12/06 11:26:47;;;;;;;139.82;56.45;;;4.70;99.90;;;;;;5075812;28;20027;-82
2020/12/06 11:29:13;;;;;;;137.20;57.13;;;4.70;99.90;;;;;;5068437;28;20035;-82
2020/12/06 11:31:40;;;;;;;134.45;55.35;;;4.70;99.90;;;;;;5065277;28;20026;-83
2020/12/06 11:34:05;;;;;;;138.45;57.88;;;4.80;99.90;;;;;;5060245;28;20043;-83
2020/12/06 11:36:31;;;;;;;148.63;57.83;;;4.80;99.90;;;;;;5091605;28;20468;-82
2020/12/06 11:38:57;;;;;;;136.30;55.83;;;4.80;99.90;;;;;;5070646;28;20047;-82
2020/12/06 11:41:25;;;;;;;137.20;55.00;;;4.90;99.90;;;;;;5074921;28;20020;-82
2020/12/06 11:43:50;;;;;;;132.32;53.38;;;4.90;99.90;;;;;;5072133;28;20038;-82
2020/12/06 11:46:16;;;;;;;129.95;56.17;;;5.00;99.90;;;;;;5070558;28;20031;-82
2020/12/06 11:48:41;;;;;;;137.80;56.75;;;5.00;99.90;;;;;;5069970;28;20024;-82
2020/12/06 11:51:07;;;;;;;147.57;58.55;;;5.00;99.90;;;;;;5055154;28;20025;-82
2020/12/06 11:53:34;;;;;;;134.75;54.58;;;4.90;99.90;;;;;;5068358;28;20050;-82
2020/12/06 11:55:59;;;;;;;110.55;46.00;;;4.90;99.90;;;;;;5074880;28;20043;-82
2020/12/06 11:58:25;;;;;;;150.88;58.47;;;5.00;99.90;;;;;;5070372;28;20032;-82
2020/12/06 12:00:50;;;;;;;147.88;59.55;;;5.00;99.90;;;;;;5070513;28;20024;-82
2020/12/06 12:03:16;;;;;;;142.13;57.55;;;5.00;99.90;;;;;;5069105;28;20134;-82
2020/12/06 12:05:41;;;;;;;149.85;58.10;;;5.00;99.90;;;;;;5072168;28;20051;-82
2020/12/06 12:08:07;;;;;;;152.48;59.90;;;5.00;99.90;;;;;;5071107;28;20049;-83
2020/12/06 12:10:33;;;;;;;157.15;60.70;;;5.00;99.90;;;;;;5072255;28;20372;-82
2020/12/06 12:12:58;;;;;;;154.30;59.30;;;5.00;99.90;;;;;;5056084;28;20036;-82
2020/12/06 12:15:24;;;;;;;158.32;63.08;;;5.00;99.90;;;;;;5085115;28;20099;-82
2020/12/06 12:17:49;;;;;;;146.57;57.15;;;5.00;99.90;;;;;;5087731;28;20086;-82
2020/12/06 12:20:15;;;;;;;147.27;58.30;;;5.10;99.90;;;;;;5068975;28;20028;-82
2020/12/06 12:22:40;;;;;;;139.25;57.00;;;5.20;99.90;;;;;;5079284;28;20111;-82
2020/12/06 12:25:06;;;;;;;146.88;59.72;;;5.20;99.90;;;;;;5052242;28;20041;-82
2020/12/06 12:27:32;;;;;;;143.40;57.22;;;5.20;99.90;;;;;;5063834;28;20415;-82
2020/12/06 12:29:57;;;;;;;150.10;57.28;;;5.20;99.90;;;;;;5069315;28;20052;-82
2020/12/06 12:32:23;;;;;;;132.10;54.05;;;5.30;99.90;;;;;;5085565;28;20498;-82